sensor_id;sensor_type;location;lat;lon;timestamp;P1;durP1;ratioP1;P2;durP2;ratioP2
57832;SDS011;43667;53.036;6.740;2023-02-21T00:02:04;26.75;;;11.63;;
57832;SDS011;43667;53.036;6.740;2023-02-21T00:04:48;25.80;;;11.93;;
57832;SDS011;43667;53.036;6.740;2023-02-21T00:07:33;31.15;;;12.07;;
57832;SDS011;43667;53.036;6.740;2023-02-21T00:10:17;23.88;;;12.07;;
57832;SDS011;43667;53.036;6.740;2023-02-21T00:13:01;22.25;;;11.07;;
57832;SDS011;43667;53.036;6.740;2023-02-21T00:15:45;24.98;;;10.82;;
57832;SDS011;43667;53.036;6.740;2023-02-21T00:18:35;23.58;;;12.13;;
57832;SDS011;43667;53.036;6.740;2023-02-21T00:21:20;29.30;;;11.93;;
57832;SDS011;43667;53.036;6.740;2023-02-21T00:24:05;26.73;;;11.68;;
57832;SDS011;43667;53.036;6.740;2023-02-21T00:26:50;29.52;;;11.65;;
57832;SDS011;43667;53.036;6.740;2023-02-21T00:29:34;22.95;;;10.90;;
57832;SDS011;43667;53.036;6.740;2023-02-21T00:32:18;26.85;;;11.38;;
57832;SDS011;43667;53.036;6.740;2023-02-21T00:35:03;28.23;;;12.35;;
57832;SDS011;43667;53.036;6.740;2023-02-21T00:37:48;20.02;;;11.20;;
57832;SDS011;43667;53.036;6.740;2023-02-21T00:40:35;26.48;;;11.95;;
57832;SDS011;43667;53.036;6.740;2023-02-21T00:43:26;26.67;;;12.48;;
57832;SDS011;43667;53.036;6.740;2023-02-21T00:46:11;26.17;;;12.90;;
57832;SDS011;43667;53.036;6.740;2023-02-21T00:48:55;26.92;;;12.50;;
57832;SDS011;43667;53.036;6.740;2023-02-21T00:51:40;27.38;;;12.90;;
57832;SDS011;43667;53.036;6.740;2023-02-21T00:54:24;33.63;;;13.43;;
57832;SDS011;43667;53.036;6.740;2023-02-21T00:57:08;25.30;;;12.85;;
57832;SDS011;43667;53.036;6.740;2023-02-21T00:59:52;26.02;;;13.25;;
57832;SDS011;43667;53.036;6.740;2023-02-21T01:02:36;26.58;;;12.65;;
57832;SDS011;43667;53.036;6.740;2023-02-21T01:05:21;26.90;;;12.90;;
57832;SDS011;43667;53.036;6.740;2023-02-21T01:08:05;27.15;;;12.90;;
57832;SDS011;43667;53.036;6.740;2023-02-21T01:10:49;25.58;;;13.35;;
57832;SDS011;43667;53.036;6.740;2023-02-21T01:13:33;29.10;;;14.32;;
57832;SDS011;43667;53.036;6.740;2023-02-21T01:16:18;28.77;;;12.82;;
57832;SDS011;43667;53.036;6.740;2023-02-21T01:19:02;26.52;;;12.98;;
57832;SDS011;43667;53.036;6.740;2023-02-21T01:21:46;26.20;;;12.23;;
57832;SDS011;43667;53.036;6.740;2023-02-21T01:24:30;30.45;;;13.10;;
57832;SDS011;43667;53.036;6.740;2023-02-21T01:27:15;25.45;;;13.27;;
57832;SDS011;43667;53.036;6.740;2023-02-21T01:29:59;30.75;;;12.93;;
57832;SDS011;43667;53.036;6.740;2023-02-21T01:32:43;30.85;;;12.70;;
57832;SDS011;43667;53.036;6.740;2023-02-21T01:35:27;29.02;;;13.35;;
57832;SDS011;43667;53.036;6.740;2023-02-21T01:38:11;26.25;;;13.18;;
57832;SDS011;43667;53.036;6.740;2023-02-21T01:40:55;26.88;;;12.70;;
57832;SDS011;43667;53.036;6.740;2023-02-21T01:43:55;27.60;;;12.23;;
57832;SDS011;43667;53.036;6.740;2023-02-21T01:46:43;25.70;;;12.68;;
57832;SDS011;43667;53.036;6.740;2023-02-21T01:49:27;28.48;;;12.85;;
57832;SDS011;43667;53.036;6.740;2023-02-21T01:52:12;26.48;;;13.60;;
57832;SDS011;43667;53.036;6.740;2023-02-21T01:54:57;27.08;;;13.63;;
57832;SDS011;43667;53.036;6.740;2023-02-21T01:57:42;31.38;;;13.93;;
57832;SDS011;43667;53.036;6.740;2023-02-21T02:00:27;28.08;;;13.60;;
57832;SDS011;43667;53.036;6.740;2023-02-21T02:03:14;26.58;;;12.65;;
57832;SDS011;43667;53.036;6.740;2023-02-21T02:06:04;28.10;;;14.30;;
57832;SDS011;43667;53.036;6.740;2023-02-21T02:08:53;26.48;;;13.75;;
57832;SDS011;43667;53.036;6.740;2023-02-21T02:17:41;28.65;;;14.65;;
57832;SDS011;43667;53.036;6.740;2023-02-21T02:31:20;33.10;;;16.60;;
57832;SDS011;43667;53.036;6.740;2023-02-21T02:36:48;29.77;;;16.08;;
57832;SDS011;43667;53.036;6.740;2023-02-21T02:39:25;32.45;;;15.90;;
57832;SDS011;43667;53.036;6.740;2023-02-21T02:42:10;25.77;;;15.88;;
57832;SDS011;43667;53.036;6.740;2023-02-21T02:44:56;31.77;;;16.17;;
57832;SDS011;43667;53.036;6.740;2023-02-21T02:47:37;33.58;;;15.50;;
57832;SDS011;43667;53.036;6.740;2023-02-21T02:50:06;24.92;;;15.55;;
57832;SDS011;43667;53.036;6.740;2023-02-21T02:52:34;31.15;;;16.20;;
57832;SDS011;43667;53.036;6.740;2023-02-21T02:55:17;30.40;;;16.15;;
57832;SDS011;43667;53.036;6.740;2023-02-21T02:58:06;25.80;;;14.98;;
57832;SDS011;43667;53.036;6.740;2023-02-21T03:00:34;26.73;;;15.50;;
57832;SDS011;43667;53.036;6.740;2023-02-21T03:08:54;25.77;;;15.63;;
57832;SDS011;43667;53.036;6.740;2023-02-21T03:11:37;26.52;;;15.23;;
57832;SDS011;43667;53.036;6.740;2023-02-21T03:14:26;27.98;;;15.98;;
57832;SDS011;43667;53.036;6.740;2023-02-21T03:17:00;30.10;;;16.25;;
57832;SDS011;43667;53.036;6.740;2023-02-21T03:19:33;32.92;;;17.05;;
57832;SDS011;43667;53.036;6.740;2023-02-21T03:22:07;31.90;;;16.02;;
57832;SDS011;43667;53.036;6.740;2023-02-21T03:24:41;31.27;;;15.48;;
57832;SDS011;43667;53.036;6.740;2023-02-21T03:27:10;34.38;;;16.33;;
57832;SDS011;43667;53.036;6.740;2023-02-21T03:29:37;31.85;;;15.82;;
57832;SDS011;43667;53.036;6.740;2023-02-21T03:32:07;32.20;;;16.20;;
57832;SDS011;43667;53.036;6.740;2023-02-21T03:34:36;29.27;;;15.00;;
57832;SDS011;43667;53.036;6.740;2023-02-21T03:37:04;28.35;;;15.80;;
57832;SDS011;43667;53.036;6.740;2023-02-21T03:39:31;35.28;;;16.20;;
57832;SDS011;43667;53.036;6.740;2023-02-21T03:41:57;36.60;;;14.65;;
57832;SDS011;43667;53.036;6.740;2023-02-21T03:44:22;28.27;;;15.98;;
57832;SDS011;43667;53.036;6.740;2023-02-21T03:46:48;25.83;;;15.70;;
57832;SDS011;43667;53.036;6.740;2023-02-21T03:49:13;29.63;;;16.00;;
57832;SDS011;43667;53.036;6.740;2023-02-21T03:51:39;31.23;;;16.40;;
57832;SDS011;43667;53.036;6.740;2023-02-21T03:54:05;31.50;;;16.33;;
57832;SDS011;43667;53.036;6.740;2023-02-21T03:56:30;26.40;;;15.20;;
57832;SDS011;43667;53.036;6.740;2023-02-21T03:58:56;31.13;;;16.52;;
57832;SDS011;43667;53.036;6.740;2023-02-21T04:01:21;32.55;;;17.40;;
57832;SDS011;43667;53.036;6.740;2023-02-21T04:03:47;28.88;;;15.48;;
57832;SDS011;43667;53.036;6.740;2023-02-21T04:06:12;29.75;;;16.10;;
57832;SDS011;43667;53.036;6.740;2023-02-21T04:08:38;30.15;;;16.35;;
57832;SDS011;43667;53.036;6.740;2023-02-21T04:11:04;27.50;;;16.85;;
57832;SDS011;43667;53.036;6.740;2023-02-21T04:13:29;30.98;;;17.63;;
57832;SDS011;43667;53.036;6.740;2023-02-21T04:15:55;35.80;;;18.00;;
57832;SDS011;43667;53.036;6.740;2023-02-21T04:18:20;29.88;;;17.05;;
57832;SDS011;43667;53.036;6.740;2023-02-21T04:20:46;33.90;;;18.73;;
57832;SDS011;43667;53.036;6.740;2023-02-21T04:23:16;34.67;;;18.85;;
57832;SDS011;43667;53.036;6.740;2023-02-21T04:25:46;28.73;;;17.88;;
57832;SDS011;43667;53.036;6.740;2023-02-21T04:28:12;25.55;;;17.42;;
57832;SDS011;43667;53.036;6.740;2023-02-21T04:30:38;29.75;;;17.08;;
57832;SDS011;43667;53.036;6.740;2023-02-21T04:33:03;26.75;;;18.20;;
57832;SDS011;43667;53.036;6.740;2023-02-21T04:35:29;33.50;;;17.85;;
57832;SDS011;43667;53.036;6.740;2023-02-21T04:37:55;27.17;;;17.75;;
57832;SDS011;43667;53.036;6.740;2023-02-21T04:40:20;31.13;;;17.50;;
57832;SDS011;43667;53.036;6.740;2023-02-21T04:42:46;26.67;;;18.25;;
57832;SDS011;43667;53.036;6.740;2023-02-21T04:45:12;29.35;;;18.88;;
57832;SDS011;43667;53.036;6.740;2023-02-21T04:47:37;28.17;;;18.17;;
57832;SDS011;43667;53.036;6.740;2023-02-21T04:50:03;29.33;;;18.05;;
57832;SDS011;43667;53.036;6.740;2023-02-21T04:52:29;30.33;;;18.90;;
57832;SDS011;43667;53.036;6.740;2023-02-21T04:54:55;26.63;;;18.45;;
57832;SDS011;43667;53.036;6.740;2023-02-21T04:57:21;30.20;;;18.33;;
57832;SDS011;43667;53.036;6.740;2023-02-21T04:59:46;35.33;;;19.52;;
57832;SDS011;43667;53.036;6.740;2023-02-21T05:02:12;28.65;;;19.70;;
57832;SDS011;43667;53.036;6.740;2023-02-21T05:04:38;31.15;;;20.48;;
57832;SDS011;43667;53.036;6.740;2023-02-21T05:07:04;35.67;;;20.35;;
57832;SDS011;43667;53.036;6.740;2023-02-21T05:09:30;29.65;;;19.50;;
57832;SDS011;43667;53.036;6.740;2023-02-21T05:11:55;28.30;;;20.05;;
57832;SDS011;43667;53.036;6.740;2023-02-21T05:14:21;30.17;;;20.20;;
57832;SDS011;43667;53.036;6.740;2023-02-21T05:16:46;31.95;;;19.90;;
57832;SDS011;43667;53.036;6.740;2023-02-21T05:19:12;31.10;;;20.90;;
57832;SDS011;43667;53.036;6.740;2023-02-21T05:21:51;28.50;;;19.75;;
57832;SDS011;43667;53.036;6.740;2023-02-21T05:24:24;33.63;;;22.07;;
57832;SDS011;43667;53.036;6.740;2023-02-21T05:26:50;31.60;;;21.10;;
57832;SDS011;43667;53.036;6.740;2023-02-21T05:29:16;31.10;;;20.70;;
57832;SDS011;43667;53.036;6.740;2023-02-21T05:31:42;30.60;;;19.58;;
57832;SDS011;43667;53.036;6.740;2023-02-21T05:34:08;33.90;;;21.23;;
57832;SDS011;43667;53.036;6.740;2023-02-21T05:36:34;29.88;;;19.27;;
57832;SDS011;43667;53.036;6.740;2023-02-21T05:38:59;32.88;;;21.40;;
57832;SDS011;43667;53.036;6.740;2023-02-21T05:41:25;30.35;;;19.42;;
57832;SDS011;43667;53.036;6.740;2023-02-21T05:43:51;29.30;;;20.30;;
57832;SDS011;43667;53.036;6.740;2023-02-21T05:46:26;33.90;;;20.13;;
57832;SDS011;43667;53.036;6.740;2023-02-21T05:48:54;32.15;;;20.88;;
57832;SDS011;43667;53.036;6.740;2023-02-21T05:51:21;30.10;;;20.95;;
57832;SDS011;43667;53.036;6.740;2023-02-21T05:53:48;33.30;;;21.15;;
57832;SDS011;43667;53.036;6.740;2023-02-21T05:56:14;32.20;;;19.83;;
57832;SDS011;43667;53.036;6.740;2023-02-21T05:58:40;32.58;;;21.50;;
57832;SDS011;43667;53.036;6.740;2023-02-21T06:01:06;33.95;;;20.55;;
57832;SDS011;43667;53.036;6.740;2023-02-21T06:03:31;30.50;;;20.15;;
57832;SDS011;43667;53.036;6.740;2023-02-21T06:05:57;34.47;;;21.23;;
57832;SDS011;43667;53.036;6.740;2023-02-21T06:08:23;28.73;;;19.77;;
57832;SDS011;43667;53.036;6.740;2023-02-21T06:10:49;32.53;;;20.77;;
57832;SDS011;43667;53.036;6.740;2023-02-21T06:13:15;33.95;;;21.08;;
57832;SDS011;43667;53.036;6.740;2023-02-21T06:15:40;28.52;;;20.10;;
57832;SDS011;43667;53.036;6.740;2023-02-21T06:18:06;31.95;;;20.05;;
57832;SDS011;43667;53.036;6.740;2023-02-21T06:20:32;28.95;;;20.65;;
57832;SDS011;43667;53.036;6.740;2023-02-21T06:22:57;30.92;;;20.80;;
57832;SDS011;43667;53.036;6.740;2023-02-21T06:25:23;30.15;;;20.15;;
57832;SDS011;43667;53.036;6.740;2023-02-21T06:27:48;35.47;;;21.10;;
57832;SDS011;43667;53.036;6.740;2023-02-21T06:30:14;33.58;;;21.40;;
57832;SDS011;43667;53.036;6.740;2023-02-21T06:32:40;31.98;;;20.92;;
57832;SDS011;43667;53.036;6.740;2023-02-21T06:35:07;32.20;;;21.77;;
57832;SDS011;43667;53.036;6.740;2023-02-21T06:37:32;33.55;;;21.38;;
57832;SDS011;43667;53.036;6.740;2023-02-21T06:39:58;29.90;;;20.90;;
57832;SDS011;43667;53.036;6.740;2023-02-21T06:42:24;32.38;;;21.02;;
57832;SDS011;43667;53.036;6.740;2023-02-21T06:44:50;33.28;;;21.58;;
57832;SDS011;43667;53.036;6.740;2023-02-21T06:47:15;31.63;;;21.15;;
57832;SDS011;43667;53.036;6.740;2023-02-21T06:49:41;31.27;;;21.73;;
57832;SDS011;43667;53.036;6.740;2023-02-21T06:52:07;33.25;;;22.25;;
57832;SDS011;43667;53.036;6.740;2023-02-21T06:54:33;36.95;;;20.73;;
57832;SDS011;43667;53.036;6.740;2023-02-21T06:56:59;35.28;;;22.27;;
57832;SDS011;43667;53.036;6.740;2023-02-21T06:59:26;34.42;;;22.25;;
57832;SDS011;43667;53.036;6.740;2023-02-21T07:01:53;29.23;;;21.30;;
57832;SDS011;43667;53.036;6.740;2023-02-21T07:04:19;33.55;;;21.48;;
57832;SDS011;43667;53.036;6.740;2023-02-21T07:06:44;34.70;;;22.23;;
57832;SDS011;43667;53.036;6.740;2023-02-21T07:09:10;32.30;;;22.30;;
57832;SDS011;43667;53.036;6.740;2023-02-21T07:11:36;32.65;;;21.60;;
57832;SDS011;43667;53.036;6.740;2023-02-21T07:14:02;33.70;;;22.67;;
57832;SDS011;43667;53.036;6.740;2023-02-21T07:16:28;32.25;;;22.70;;
57832;SDS011;43667;53.036;6.740;2023-02-21T07:18:53;39.47;;;23.90;;
57832;SDS011;43667;53.036;6.740;2023-02-21T07:21:19;35.55;;;22.33;;
57832;SDS011;43667;53.036;6.740;2023-02-21T07:23:46;34.47;;;23.02;;
57832;SDS011;43667;53.036;6.740;2023-02-21T07:26:12;34.40;;;22.52;;
57832;SDS011;43667;53.036;6.740;2023-02-21T07:28:38;34.28;;;22.42;;
57832;SDS011;43667;53.036;6.740;2023-02-21T07:31:04;32.55;;;22.55;;
57832;SDS011;43667;53.036;6.740;2023-02-21T07:33:30;33.45;;;23.58;;
57832;SDS011;43667;53.036;6.740;2023-02-21T07:35:56;38.22;;;23.05;;
57832;SDS011;43667;53.036;6.740;2023-02-21T07:38:25;34.50;;;23.73;;
57832;SDS011;43667;53.036;6.740;2023-02-21T07:40:56;35.05;;;23.25;;
57832;SDS011;43667;53.036;6.740;2023-02-21T07:43:23;34.50;;;23.65;;
57832;SDS011;43667;53.036;6.740;2023-02-21T07:45:50;32.53;;;22.38;;
57832;SDS011;43667;53.036;6.740;2023-02-21T07:48:16;34.50;;;23.63;;
57832;SDS011;43667;53.036;6.740;2023-02-21T07:50:41;32.65;;;22.52;;
57832;SDS011;43667;53.036;6.740;2023-02-21T07:53:08;36.35;;;24.17;;
57832;SDS011;43667;53.036;6.740;2023-02-21T07:55:34;33.88;;;21.80;;
57832;SDS011;43667;53.036;6.740;2023-02-21T07:58:00;33.20;;;22.42;;
57832;SDS011;43667;53.036;6.740;2023-02-21T08:00:25;34.10;;;22.83;;
57832;SDS011;43667;53.036;6.740;2023-02-21T08:02:51;32.45;;;21.55;;
57832;SDS011;43667;53.036;6.740;2023-02-21T08:05:18;38.20;;;23.67;;
57832;SDS011;43667;53.036;6.740;2023-02-21T08:07:44;32.80;;;23.70;;
57832;SDS011;43667;53.036;6.740;2023-02-21T08:10:11;32.50;;;22.05;;
57832;SDS011;43667;53.036;6.740;2023-02-21T08:12:38;34.38;;;23.27;;
57832;SDS011;43667;53.036;6.740;2023-02-21T08:15:03;36.90;;;23.15;;
57832;SDS011;43667;53.036;6.740;2023-02-21T08:17:30;33.85;;;22.83;;
57832;SDS011;43667;53.036;6.740;2023-02-21T08:19:56;30.98;;;21.50;;
57832;SDS011;43667;53.036;6.740;2023-02-21T08:22:22;32.50;;;22.52;;
57832;SDS011;43667;53.036;6.740;2023-02-21T08:24:48;31.52;;;22.52;;
57832;SDS011;43667;53.036;6.740;2023-02-21T08:27:14;31.13;;;21.85;;
57832;SDS011;43667;53.036;6.740;2023-02-21T08:29:40;31.17;;;23.25;;
57832;SDS011;43667;53.036;6.740;2023-02-21T08:32:05;33.63;;;22.33;;
57832;SDS011;43667;53.036;6.740;2023-02-21T08:34:31;30.67;;;23.48;;
57832;SDS011;43667;53.036;6.740;2023-02-21T08:36:57;34.42;;;23.20;;
57832;SDS011;43667;53.036;6.740;2023-02-21T08:39:22;35.33;;;24.95;;
57832;SDS011;43667;53.036;6.740;2023-02-21T08:41:48;34.20;;;22.63;;
57832;SDS011;43667;53.036;6.740;2023-02-21T08:44:15;36.08;;;23.60;;
57832;SDS011;43667;53.036;6.740;2023-02-21T08:46:42;33.78;;;23.85;;
57832;SDS011;43667;53.036;6.740;2023-02-21T08:49:09;41.90;;;25.17;;
57832;SDS011;43667;53.036;6.740;2023-02-21T08:51:35;34.58;;;23.58;;
57832;SDS011;43667;53.036;6.740;2023-02-21T08:54:02;30.27;;;23.63;;
57832;SDS011;43667;53.036;6.740;2023-02-21T08:56:28;34.08;;;23.67;;
57832;SDS011;43667;53.036;6.740;2023-02-21T08:58:54;35.40;;;23.92;;
57832;SDS011;43667;53.036;6.740;2023-02-21T09:01:21;35.38;;;23.65;;
57832;SDS011;43667;53.036;6.740;2023-02-21T09:03:47;34.33;;;24.35;;
57832;SDS011;43667;53.036;6.740;2023-02-21T09:06:13;36.03;;;24.48;;
57832;SDS011;43667;53.036;6.740;2023-02-21T09:08:39;36.10;;;23.30;;
57832;SDS011;43667;53.036;6.740;2023-02-21T09:11:05;35.67;;;23.67;;
57832;SDS011;43667;53.036;6.740;2023-02-21T09:13:31;32.17;;;24.42;;
57832;SDS011;43667;53.036;6.740;2023-02-21T09:15:57;31.90;;;24.27;;
57832;SDS011;43667;53.036;6.740;2023-02-21T09:18:24;33.33;;;24.90;;
57832;SDS011;43667;53.036;6.740;2023-02-21T09:20:50;30.55;;;23.13;;
57832;SDS011;43667;53.036;6.740;2023-02-21T09:23:18;31.00;;;23.70;;
57832;SDS011;43667;53.036;6.740;2023-02-21T09:25:48;30.83;;;23.60;;
57832;SDS011;43667;53.036;6.740;2023-02-21T09:28:14;31.33;;;24.17;;
57832;SDS011;43667;53.036;6.740;2023-02-21T09:30:40;35.70;;;23.65;;
57832;SDS011;43667;53.036;6.740;2023-02-21T09:33:06;30.10;;;24.30;;
57832;SDS011;43667;53.036;6.740;2023-02-21T09:35:32;31.98;;;22.80;;
57832;SDS011;43667;53.036;6.740;2023-02-21T09:37:58;34.33;;;24.60;;
57832;SDS011;43667;53.036;6.740;2023-02-21T09:43:03;33.08;;;24.50;;
57832;SDS011;43667;53.036;6.740;2023-02-21T09:45:33;28.83;;;23.08;;
57832;SDS011;43667;53.036;6.740;2023-02-21T09:48:08;31.95;;;23.17;;
57832;SDS011;43667;53.036;6.740;2023-02-21T09:50:50;33.08;;;24.42;;
57832;SDS011;43667;53.036;6.740;2023-02-21T09:53:19;34.15;;;24.23;;
57832;SDS011;43667;53.036;6.740;2023-02-21T09:55:49;28.20;;;23.52;;
57832;SDS011;43667;53.036;6.740;2023-02-21T09:58:18;29.00;;;24.02;;
57832;SDS011;43667;53.036;6.740;2023-02-21T10:00:45;30.85;;;23.00;;
57832;SDS011;43667;53.036;6.740;2023-02-21T10:03:15;34.40;;;23.42;;
57832;SDS011;43667;53.036;6.740;2023-02-21T10:11:40;25.92;;;22.35;;
57832;SDS011;43667;53.036;6.740;2023-02-21T10:17:16;26.05;;;21.50;;
57832;SDS011;43667;53.036;6.740;2023-02-21T10:19:54;28.63;;;21.92;;
57832;SDS011;43667;53.036;6.740;2023-02-21T10:22:27;27.75;;;21.40;;
57832;SDS011;43667;53.036;6.740;2023-02-21T10:24:57;27.95;;;22.30;;
57832;SDS011;43667;53.036;6.740;2023-02-21T10:27:25;27.42;;;21.77;;
57832;SDS011;43667;53.036;6.740;2023-02-21T10:32:34;28.02;;;21.48;;
57832;SDS011;43667;53.036;6.740;2023-02-21T10:35:01;26.58;;;21.25;;
57832;SDS011;43667;53.036;6.740;2023-02-21T10:37:38;28.27;;;22.15;;
57832;SDS011;43667;53.036;6.740;2023-02-21T10:43:02;24.25;;;20.35;;
57832;SDS011;43667;53.036;6.740;2023-02-21T10:45:33;27.10;;;20.95;;
57832;SDS011;43667;53.036;6.740;2023-02-21T10:48:24;26.05;;;21.30;;
57832;SDS011;43667;53.036;6.740;2023-02-21T10:56:05;23.95;;;20.38;;
57832;SDS011;43667;53.036;6.740;2023-02-21T10:58:44;27.70;;;22.25;;
57832;SDS011;43667;53.036;6.740;2023-02-21T11:04:04;25.48;;;20.75;;
57832;SDS011;43667;53.036;6.740;2023-02-21T11:06:57;29.23;;;21.20;;
57832;SDS011;43667;53.036;6.740;2023-02-21T11:14:28;25.40;;;21.25;;
57832;SDS011;43667;53.036;6.740;2023-02-21T11:17:05;28.50;;;19.65;;
57832;SDS011;43667;53.036;6.740;2023-02-21T11:19:43;26.70;;;21.10;;
57832;SDS011;43667;53.036;6.740;2023-02-21T11:22:16;24.67;;;20.63;;
57832;SDS011;43667;53.036;6.740;2023-02-21T11:27:44;28.45;;;20.30;;
57832;SDS011;43667;53.036;6.740;2023-02-21T11:30:46;23.30;;;19.80;;
57832;SDS011;43667;53.036;6.740;2023-02-21T11:33:21;23.73;;;19.17;;
57832;SDS011;43667;53.036;6.740;2023-02-21T11:35:48;26.02;;;19.10;;
57832;SDS011;43667;53.036;6.740;2023-02-21T11:38:35;22.60;;;20.13;;
57832;SDS011;43667;53.036;6.740;2023-02-21T11:41:20;27.13;;;19.38;;
57832;SDS011;43667;53.036;6.740;2023-02-21T11:43:54;26.10;;;20.05;;
57832;SDS011;43667;53.036;6.740;2023-02-21T11:49:03;24.02;;;18.48;;
57832;SDS011;43667;53.036;6.740;2023-02-21T11:51:55;24.73;;;19.27;;
57832;SDS011;43667;53.036;6.740;2023-02-21T11:54:25;23.63;;;18.65;;
57832;SDS011;43667;53.036;6.740;2023-02-21T12:02:51;22.55;;;18.55;;
57832;SDS011;43667;53.036;6.740;2023-02-21T12:10:48;23.80;;;19.00;;
57832;SDS011;43667;53.036;6.740;2023-02-21T12:13:42;23.05;;;18.25;;
57832;SDS011;43667;53.036;6.740;2023-02-21T12:16:12;22.45;;;18.10;;
57832;SDS011;43667;53.036;6.740;2023-02-21T12:19:07;21.08;;;18.33;;
57832;SDS011;43667;53.036;6.740;2023-02-21T12:24:30;25.25;;;20.67;;
57832;SDS011;43667;53.036;6.740;2023-02-21T12:32:49;23.20;;;18.27;;
57832;SDS011;43667;53.036;6.740;2023-02-21T12:38:05;25.77;;;20.35;;
57832;SDS011;43667;53.036;6.740;2023-02-21T12:40:50;22.10;;;18.60;;
57832;SDS011;43667;53.036;6.740;2023-02-21T12:43:26;25.60;;;19.52;;
57832;SDS011;43667;53.036;6.740;2023-02-21T12:46:12;22.25;;;19.15;;
57832;SDS011;43667;53.036;6.740;2023-02-21T12:48:43;21.92;;;18.80;;
57832;SDS011;43667;53.036;6.740;2023-02-21T12:51:15;23.13;;;19.75;;
57832;SDS011;43667;53.036;6.740;2023-02-21T12:54:17;22.08;;;18.77;;
57832;SDS011;43667;53.036;6.740;2023-02-21T12:56:48;22.38;;;19.02;;
57832;SDS011;43667;53.036;6.740;2023-02-21T13:02:18;23.25;;;19.95;;
57832;SDS011;43667;53.036;6.740;2023-02-21T13:04:56;21.10;;;18.77;;
57832;SDS011;43667;53.036;6.740;2023-02-21T13:07:47;24.20;;;18.80;;
57832;SDS011;43667;53.036;6.740;2023-02-21T13:10:21;25.80;;;19.48;;
57832;SDS011;43667;53.036;6.740;2023-02-21T13:13:16;23.15;;;18.98;;
57832;SDS011;43667;53.036;6.740;2023-02-21T13:15:49;23.58;;;19.33;;
57832;SDS011;43667;53.036;6.740;2023-02-21T13:18:25;24.33;;;20.20;;
57832;SDS011;43667;53.036;6.740;2023-02-21T13:20:57;23.83;;;20.50;;
57832;SDS011;43667;53.036;6.740;2023-02-21T13:23:28;24.40;;;20.50;;
57832;SDS011;43667;53.036;6.740;2023-02-21T13:26:15;24.60;;;21.25;;
57832;SDS011;43667;53.036;6.740;2023-02-21T13:29:03;26.25;;;21.50;;
57832;SDS011;43667;53.036;6.740;2023-02-21T13:31:55;25.10;;;21.88;;
57832;SDS011;43667;53.036;6.740;2023-02-21T13:34:28;26.15;;;20.42;;
57832;SDS011;43667;53.036;6.740;2023-02-21T13:36:59;25.33;;;20.98;;
57832;SDS011;43667;53.036;6.740;2023-02-21T13:39:27;25.55;;;21.45;;
57832;SDS011;43667;53.036;6.740;2023-02-21T13:44:41;26.88;;;21.00;;
57832;SDS011;43667;53.036;6.740;2023-02-21T13:47:12;32.15;;;22.35;;
57832;SDS011;43667;53.036;6.740;2023-02-21T13:57:45;24.63;;;21.17;;
57832;SDS011;43667;53.036;6.740;2023-02-21T14:03:03;33.10;;;21.83;;
57832;SDS011;43667;53.036;6.740;2023-02-21T14:11:33;22.83;;;20.38;;
57832;SDS011;43667;53.036;6.740;2023-02-21T14:13:58;22.83;;;19.75;;
57832;SDS011;43667;53.036;6.740;2023-02-21T14:16:29;23.58;;;20.58;;
57832;SDS011;43667;53.036;6.740;2023-02-21T14:19:56;22.63;;;20.13;;
57832;SDS011;43667;53.036;6.740;2023-02-21T14:24:49;20.60;;;18.45;;
57832;SDS011;43667;53.036;6.740;2023-02-21T14:32:23;22.35;;;19.42;;
57832;SDS011;43667;53.036;6.740;2023-02-21T14:34:52;21.35;;;19.00;;
57832;SDS011;43667;53.036;6.740;2023-02-21T14:48:18;21.35;;;18.45;;
57832;SDS011;43667;53.036;6.740;2023-02-21T15:05:09;23.42;;;20.65;;
57832;SDS011;43667;53.036;6.740;2023-02-21T15:10:42;25.60;;;21.55;;
57832;SDS011;43667;53.036;6.740;2023-02-21T15:16:04;27.92;;;22.23;;
57832;SDS011;43667;53.036;6.740;2023-02-21T15:19:16;26.58;;;22.27;;
57832;SDS011;43667;53.036;6.740;2023-02-21T15:21:24;26.13;;;22.10;;
57832;SDS011;43667;53.036;6.740;2023-02-21T15:24:00;26.92;;;22.17;;
57832;SDS011;43667;53.036;6.740;2023-02-21T15:26:36;29.42;;;22.75;;
57832;SDS011;43667;53.036;6.740;2023-02-21T15:29:09;25.48;;;22.83;;
57832;SDS011;43667;53.036;6.740;2023-02-21T15:34:16;28.85;;;24.02;;
57832;SDS011;43667;53.036;6.740;2023-02-21T15:36:48;27.70;;;24.45;;
57832;SDS011;43667;53.036;6.740;2023-02-21T15:39:34;28.63;;;23.98;;
57832;SDS011;43667;53.036;6.740;2023-02-21T15:42:03;33.95;;;24.50;;
57832;SDS011;43667;53.036;6.740;2023-02-21T15:44:39;29.27;;;24.70;;
57832;SDS011;43667;53.036;6.740;2023-02-21T15:47:19;31.48;;;24.98;;
57832;SDS011;43667;53.036;6.740;2023-02-21T15:49:54;32.63;;;26.25;;
57832;SDS011;43667;53.036;6.740;2023-02-21T15:52:33;31.15;;;24.55;;
57832;SDS011;43667;53.036;6.740;2023-02-21T15:57:46;32.47;;;26.42;;
57832;SDS011;43667;53.036;6.740;2023-02-21T16:08:53;34.33;;;27.67;;
57832;SDS011;43667;53.036;6.740;2023-02-21T16:17:12;34.47;;;28.48;;
57832;SDS011;43667;53.036;6.740;2023-02-21T16:22:37;39.00;;;29.90;;
57832;SDS011;43667;53.036;6.740;2023-02-21T16:25:06;37.47;;;29.30;;
57832;SDS011;43667;53.036;6.740;2023-02-21T16:27:35;41.20;;;30.58;;
57832;SDS011;43667;53.036;6.740;2023-02-21T16:30:05;39.70;;;30.00;;
57832;SDS011;43667;53.036;6.740;2023-02-21T16:32:35;37.63;;;30.02;;
57832;SDS011;43667;53.036;6.740;2023-02-21T16:35:03;38.30;;;30.15;;
57832;SDS011;43667;53.036;6.740;2023-02-21T16:37:28;38.33;;;30.27;;
57832;SDS011;43667;53.036;6.740;2023-02-21T16:39:54;39.45;;;31.23;;
57832;SDS011;43667;53.036;6.740;2023-02-21T16:42:19;43.55;;;32.33;;
57832;SDS011;43667;53.036;6.740;2023-02-21T16:44:45;42.63;;;31.05;;
57832;SDS011;43667;53.036;6.740;2023-02-21T16:47:14;43.95;;;31.50;;
57832;SDS011;43667;53.036;6.740;2023-02-21T16:49:41;40.60;;;30.02;;
57832;SDS011;43667;53.036;6.740;2023-02-21T16:52:12;43.65;;;32.25;;
57832;SDS011;43667;53.036;6.740;2023-02-21T16:54:39;39.70;;;31.00;;
57832;SDS011;43667;53.036;6.740;2023-02-21T16:57:05;42.42;;;31.67;;
57832;SDS011;43667;53.036;6.740;2023-02-21T16:59:31;41.92;;;32.25;;
57832;SDS011;43667;53.036;6.740;2023-02-21T17:01:57;42.78;;;32.30;;
57832;SDS011;43667;53.036;6.740;2023-02-21T17:04:23;42.97;;;32.75;;
57832;SDS011;43667;53.036;6.740;2023-02-21T17:06:54;38.88;;;30.52;;
57832;SDS011;43667;53.036;6.740;2023-02-21T17:09:22;41.03;;;31.10;;
57832;SDS011;43667;53.036;6.740;2023-02-21T17:11:49;43.67;;;32.55;;
57832;SDS011;43667;53.036;6.740;2023-02-21T17:14:17;45.35;;;34.00;;
57832;SDS011;43667;53.036;6.740;2023-02-21T17:16:42;44.65;;;33.22;;
57832;SDS011;43667;53.036;6.740;2023-02-21T17:19:09;53.47;;;34.45;;
57832;SDS011;43667;53.036;6.740;2023-02-21T17:21:42;48.70;;;34.00;;
57832;SDS011;43667;53.036;6.740;2023-02-21T17:24:09;43.83;;;33.20;;
57832;SDS011;43667;53.036;6.740;2023-02-21T17:26:36;47.25;;;34.45;;
57832;SDS011;43667;53.036;6.740;2023-02-21T17:29:02;42.75;;;33.53;;
57832;SDS011;43667;53.036;6.740;2023-02-21T17:31:29;44.63;;;33.78;;
57832;SDS011;43667;53.036;6.740;2023-02-21T17:33:55;44.70;;;34.03;;
57832;SDS011;43667;53.036;6.740;2023-02-21T17:36:22;46.05;;;34.40;;
57832;SDS011;43667;53.036;6.740;2023-02-21T17:38:49;50.97;;;35.70;;